Time;durP1;ratioP1;P1;durP2;ratioP2;P2;SDS_P1;SDS_P2;PMS_P1;PMS_P2;Temp;Humidity;BMP_temperature;BMP_pressure;BME280_temperature;BME280_humidity;BME280_pressure;Samples;Min_cycle;Max_cycle;Signal;HPM_P1;HPM_P2
2023/05/01 00:01:58;;;;;;;4.90;2.47;;;;;;;;;;5128433;27;20043;-68
2023/05/01 00:04:25;;;;;;;3.85;2.47;;;;;;;;;;5123222;27;20301;-67
2023/05/01 00:06:52;;;;;;;3.65;2.08;;;;;;;;;;5127234;27;20043;-67
2023/05/01 00:09:20;;;;;;;4.07;2.35;;;;;;;;;;5126636;27;20057;-67
2023/05/01 00:11:47;;;;;;;4.57;2.30;;;;;;;;;;5128064;27;20057;-68
2023/05/01 00:14:16;;;;;;;4.38;2.45;;;;;;;;;;5126621;27;20123;-67
2023/05/01 00:16:45;;;;;;;6.18;2.40;;;;;;;;;;5131810;27;20104;-68
2023/05/01 00:19:17;;;;;;;5.93;2.35;;;;;;;;;;5127354;27;20453;-68
2023/05/01 00:21:46;;;;;;;4.45;2.22;;;;;;;;;;5130004;27;20057;-67
2023/05/01 00:24:14;;;;;;;9.20;2.58;;;;;;;;;;5122461;27;20096;-68
2023/05/01 00:26:41;;;;;;;3.75;2.40;;;;;;;;;;5111891;27;20047;-67
2023/05/01 00:29:08;;;;;;;5.65;2.55;;;;;;;;;;5122808;27;20066;-68
2023/05/01 00:31:37;;;;;;;3.85;2.53;;;;;;;;;;5131416;27;20431;-67
2023/05/01 00:34:05;;;;;;;5.45;2.58;;;;;;;;;;5127741;27;20051;-68
2023/05/01 00:36:32;;;;;;;6.68;2.40;;;;;;;;;;5131002;27;20103;-67
2023/05/01 00:38:59;;;;;;;4.22;2.60;;;;;;;;;;5131255;27;20089;-68
2023/05/01 00:41:26;;;;;;;6.20;2.85;;;;;;;;;;5126346;27;20125;-67
2023/05/01 00:43:54;;;;;;;5.15;2.72;;;;;;;;;;5112892;27;20053;-67
2023/05/01 00:46:21;;;;;;;4.38;2.35;;;;;;;;;;5127048;27;20050;-67
2023/05/01 00:48:50;;;;;;;4.70;2.25;;;;;;;;;;5120193;27;20059;-68
2023/05/01 00:51:17;;;;;;;6.53;2.95;;;;;;;;;;5129690;27;20071;-67
2023/05/01 00:53:45;;;;;;;4.10;2.47;;;;;;;;;;5123434;27;20131;-68
2023/05/01 00:56:12;;;;;;;5.15;2.63;;;;;;;;;;5128239;27;20478;-67
2023/05/01 00:58:40;;;;;;;5.70;2.53;;;;;;;;;;5128259;27;20382;-67
2023/05/01 01:01:08;;;;;;;3.95;2.65;;;;;;;;;;5129833;27;20788;-67
2023/05/01 01:03:36;;;;;;;5.10;3.03;;;;;;;;;;5131608;27;20047;-67
2023/05/01 01:06:08;;;;;;;5.75;2.67;;;;;;;;;;5132143;27;20060;-68
2023/05/01 01:08:39;;;;;;;5.07;2.88;;;;;;;;;;5130747;27;20055;-67
2023/05/01 01:11:11;;;;;;;5.57;2.92;;;;;;;;;;5128046;27;20098;-67
2023/05/01 01:13:43;;;;;;;4.85;2.70;;;;;;;;;;5110671;27;20039;-67
2023/05/01 01:16:13;;;;;;;3.78;2.40;;;;;;;;;;5111658;27;20051;-67
2023/05/01 01:18:42;;;;;;;8.00;2.92;;;;;;;;;;5129662;27;20139;-67
2023/05/01 01:21:13;;;;;;;5.22;2.45;;;;;;;;;;5126946;27;20062;-67
2023/05/01 01:24:04;;;;;;;5.00;3.13;;;;;;;;;;5129341;27;20050;-67
2023/05/01 01:26:45;;;;;;;4.93;2.47;;;;;;;;;;5128507;27;20050;-67
2023/05/01 01:29:25;;;;;;;5.47;2.80;;;;;;;;;;5120967;27;20043;-67
2023/05/01 01:31:58;;;;;;;5.43;2.60;;;;;;;;;;5124388;27;20055;-67
2023/05/01 01:34:28;;;;;;;6.50;2.90;;;;;;;;;;5131056;27;20066;-68
2023/05/01 01:37:01;;;;;;;5.97;2.65;;;;;;;;;;5129456;27;20127;-67
2023/05/01 01:39:28;;;;;;;;;;;;;;;;;;5122439;27;20046;-67
2023/05/01 01:41:57;;;;;;;5.85;2.67;;;;;;;;;;5129618;27;19919;-68
2023/05/01 01:44:29;;;;;;;4.38;2.70;;;;;;;;;;5127876;27;20055;-67
2023/05/01 01:46:57;;;;;;;4.43;2.47;;;;;;;;;;5129758;27;20106;-67
2023/05/01 01:49:25;;;;;;;4.22;2.38;;;;;;;;;;5129796;27;20576;-67
2023/05/01 01:51:55;;;;;;;6.60;2.53;;;;;;;;;;5125207;27;20055;-67
2023/05/01 01:54:27;;;;;;;6.00;2.83;;;;;;;;;;5130052;27;20061;-67
2023/05/01 01:56:54;;;;;;;5.68;2.80;;;;;;;;;;5110215;27;20108;-67
2023/05/01 01:59:22;;;;;;;4.28;2.47;;;;;;;;;;5127535;27;20493;-67
2023/05/01 02:01:50;;;;;;;5.55;2.60;;;;;;;;;;5130178;27;20062;-67
2023/05/01 02:04:18;;;;;;;3.97;2.42;;;;;;;;;;5128304;27;20057;-67
2023/05/01 02:06:46;;;;;;;6.45;2.55;;;;;;;;;;5129474;27;20043;-68
2023/05/01 02:09:17;;;;;;;4.70;2.53;;;;;;;;;;5129812;27;20047;-67
2023/05/01 02:11:45;;;;;;;5.35;2.60;;;;;;;;;;5126390;27;20053;-67
2023/05/01 02:14:13;;;;;;;6.28;2.40;;;;;;;;;;5123143;27;20062;-67
2023/05/01 02:16:42;;;;;;;4.32;2.17;;;;;;;;;;5127943;27;20150;-67
2023/05/01 02:19:10;;;;;;;4.10;2.60;;;;;;;;;;5128140;27;20051;-67
2023/05/01 02:21:37;;;;;;;3.95;2.05;;;;;;;;;;5125338;27;20406;-67
2023/05/01 02:24:06;;;;;;;4.93;2.53;;;;;;;;;;5127872;27;20058;-67
2023/05/01 02:26:37;;;;;;;5.05;2.30;;;;;;;;;;5110862;27;20039;-67
2023/05/01 02:29:06;;;;;;;6.82;2.85;;;;;;;;;;5126639;27;20047;-67
2023/05/01 02:31:33;;;;;;;3.92;2.42;;;;;;;;;;5127426;27;20127;-67
2023/05/01 02:34:00;;;;;;;3.50;2.45;;;;;;;;;;5126667;27;20043;-67
2023/05/01 02:36:28;;;;;;;4.78;2.30;;;;;;;;;;5125160;27;20049;-67
2023/05/01 02:38:55;;;;;;;4.70;2.45;;;;;;;;;;5122158;27;20079;-67
2023/05/01 02:41:23;;;;;;;8.55;2.65;;;;;;;;;;5127808;27;20124;-67
2023/05/01 02:43:53;;;;;;;4.40;2.63;;;;;;;;;;5104696;27;20050;-67
2023/05/01 02:46:22;;;;;;;4.43;2.45;;;;;;;;;;5126030;27;20057;-67
2023/05/01 02:48:49;;;;;;;4.22;2.35;;;;;;;;;;5127059;27;20045;-67
2023/05/01 02:51:17;;;;;;;3.42;2.30;;;;;;;;;;5127528;27;20047;-67
2023/05/01 02:53:44;;;;;;;4.80;2.22;;;;;;;;;;5127414;27;20054;-67
2023/05/01 02:56:11;;;;;;;6.38;2.53;;;;;;;;;;5127256;27;20066;-70
2023/05/01 02:58:39;;;;;;;4.85;2.83;;;;;;;;;;5128810;27;20062;-70
2023/05/01 03:01:08;;;;;;;4.40;2.38;;;;;;;;;;5103690;27;20054;-70
2023/05/01 03:03:36;;;;;;;4.53;2.10;;;;;;;;;;5128007;27;20043;-70
2023/05/01 03:06:03;;;;;;;3.92;2.20;;;;;;;;;;5126022;27;20051;-70
2023/05/01 03:08:30;;;;;;;5.63;2.53;;;;;;;;;;5128871;27;20534;-70
2023/05/01 03:10:58;;;;;;;4.03;2.38;;;;;;;;;;5107967;27;20096;-70
2023/05/01 03:13:25;;;;;;;7.25;2.58;;;;;;;;;;5110082;27;20557;-70
2023/05/01 03:15:52;;;;;;;3.95;2.40;;;;;;;;;;5123982;27;20133;-70
2023/05/01 03:18:21;;;;;;;3.30;2.33;;;;;;;;;;5129612;27;20395;-70
2023/05/01 03:20:52;;;;;;;4.80;2.17;;;;;;;;;;5126212;27;20296;-70
2023/05/01 03:23:20;;;;;;;4.85;2.35;;;;;;;;;;5127577;27;20108;-67
2023/05/01 03:25:47;;;;;;;3.85;2.35;;;;;;;;;;5123988;27;20047;-67
2023/05/01 03:28:15;;;;;;;4.65;2.30;;;;;;;;;;5122677;27;20462;-67
2023/05/01 03:30:42;;;;;;;4.45;2.33;;;;;;;;;;5123143;27;20077;-67
2023/05/01 03:33:10;;;;;;;4.95;2.50;;;;;;;;;;5126742;27;20063;-69
2023/05/01 03:35:38;;;;;;;5.80;2.50;;;;;;;;;;5104525;27;20145;-70
2023/05/01 03:38:05;;;;;;;6.55;2.60;;;;;;;;;;5109423;28;20055;-70
2023/05/01 03:40:33;;;;;;;2.85;1.90;;;;;;;;;;5109971;27;20055;-70
2023/05/01 03:43:00;;;;;;;4.78;2.25;;;;;;;;;;5132666;27;20048;-70
2023/05/01 03:45:27;;;;;;;5.30;2.70;;;;;;;;;;5128633;27;20054;-70
2023/05/01 03:47:56;;;;;;;5.05;2.75;;;;;;;;;;5131719;27;20595;-67
2023/05/01 03:50:23;;;;;;;4.28;2.50;;;;;;;;;;5131689;27;20053;-67
2023/05/01 03:52:51;;;;;;;4.60;2.40;;;;;;;;;;5110424;28;20047;-70
2023/05/01 03:55:19;;;;;;;5.70;2.35;;;;;;;;;;5129148;27;20130;-70
2023/05/01 03:57:47;;;;;;;6.28;2.30;;;;;;;;;;5132699;27;20089;-70
2023/05/01 04:00:14;;;;;;;5.10;2.28;;;;;;;;;;5131109;27;20164;-70
2023/05/01 04:02:42;;;;;;;6.07;2.63;;;;;;;;;;5120222;27;20054;-70
2023/05/01 04:05:09;;;;;;;5.00;2.47;;;;;;;;;;5130309;27;20058;-70
2023/05/01 04:07:36;;;;;;;4.60;2.30;;;;;;;;;;5133033;27;20039;-70
2023/05/01 04:10:06;;;;;;;6.07;2.22;;;;;;;;;;5124491;27;20055;-70
2023/05/01 04:12:34;;;;;;;6.45;2.47;;;;;;;;;;5126078;27;20126;-70
2023/05/01 04:15:03;;;;;;;4.88;2.40;;;;;;;;;;5128293;27;20055;-70
2023/05/01 04:17:30;;;;;;;4.38;2.25;;;;;;;;;;5132946;27;20043;-70
2023/05/01 04:19:57;;;;;;;3.63;2.20;;;;;;;;;;5130243;27;20054;-70
2023/05/01 04:22:25;;;;;;;4.38;2.30;;;;;;;;;;5128947;27;20051;-70
2023/05/01 04:24:53;;;;;;;4.72;2.30;;;;;;;;;;5106142;27;20157;-69
2023/05/01 04:27:21;;;;;;;5.65;2.40;;;;;;;;;;5132286;27;20058;-70
2023/05/01 04:29:48;;;;;;;4.75;2.35;;;;;;;;;;5110299;27;20521;-70
2023/05/01 04:32:16;;;;;;;5.78;2.72;;;;;;;;;;5132356;27;20062;-70
2023/05/01 04:34:43;;;;;;;6.25;2.88;;;;;;;;;;5129887;27;20126;-70
2023/05/01 04:37:11;;;;;;;4.57;2.67;;;;;;;;;;5131368;27;20393;-69
2023/05/01 04:39:38;;;;;;;5.18;2.63;;;;;;;;;;5130038;27;20056;-70
2023/05/01 04:42:05;;;;;;;5.47;2.58;;;;;;;;;;5131263;27;20058;-70
2023/05/01 04:44:36;;;;;;;5.25;2.58;;;;;;;;;;5129041;27;20051;-70
2023/05/01 04:47:03;;;;;;;5.28;2.20;;;;;;;;;;5129234;27;20099;-70
2023/05/01 04:49:31;;;;;;;4.35;2.40;;;;;;;;;;5131005;27;20444;-70
2023/05/01 04:51:58;;;;;;;4.00;2.40;;;;;;;;;;5131405;27;20062;-70
2023/05/01 04:54:26;;;;;;;5.40;2.53;;;;;;;;;;5131255;27;20043;-70
2023/05/01 04:56:53;;;;;;;4.22;2.53;;;;;;;;;;5130588;27;20492;-70
2023/05/01 04:59:21;;;;;;;5.40;2.70;;;;;;;;;;5123896;27;20570;-70
2023/05/01 05:01:49;;;;;;;4.93;2.60;;;;;;;;;;5130494;27;20058;-70
2023/05/01 05:04:17;;;;;;;4.95;2.63;;;;;;;;;;5128576;27;20051;-70
2023/05/01 05:06:44;;;;;;;5.07;2.63;;;;;;;;;;5130598;27;20431;-70
2023/05/01 05:09:11;;;;;;;8.65;2.80;;;;;;;;;;5129130;27;20054;-70
2023/05/01 05:11:40;;;;;;;9.70;2.50;;;;;;;;;;5130209;27;20039;-70
2023/05/01 05:14:07;;;;;;;4.97;2.65;;;;;;;;;;5129241;27;20043;-70
2023/05/01 05:16:34;;;;;;;4.28;2.40;;;;;;;;;;5130039;27;20123;-70
2023/05/01 05:19:03;;;;;;;9.00;3.10;;;;;;;;;;5128183;27;20494;-70
2023/05/01 05:21:30;;;;;;;5.00;2.65;;;;;;;;;;5109057;27;20051;-70
2023/05/01 05:23:58;;;;;;;4.43;2.38;;;;;;;;;;5121114;27;20096;-70
2023/05/01 05:26:26;;;;;;;4.75;2.70;;;;;;;;;;5121193;27;20047;-70
2023/05/01 05:28:53;;;;;;;4.50;2.60;;;;;;;;;;5109544;27;20077;-70
2023/05/01 05:31:20;;;;;;;5.07;3.05;;;;;;;;;;5109257;27;20094;-70
2023/05/01 05:33:48;;;;;;;6.45;2.65;;;;;;;;;;5114373;27;20039;-70
2023/05/01 05:36:17;;;;;;;6.45;2.70;;;;;;;;;;5116885;27;20472;-70
2023/05/01 05:38:44;;;;;;;6.28;2.92;;;;;;;;;;5112055;27;20044;-70
2023/05/01 05:41:11;;;;;;;5.32;2.63;;;;;;;;;;5108841;27;20059;-67
2023/05/01 05:43:39;;;;;;;8.60;3.00;;;;;;;;;;5115203;27;20047;-67
2023/05/01 05:46:06;;;;;;;5.57;2.60;;;;;;;;;;5111787;27;21295;-68
2023/05/01 05:48:33;;;;;;;5.50;2.80;;;;;;;;;;5116314;27;20047;-69
2023/05/01 05:51:00;;;;;;;5.30;2.60;;;;;;;;;;5111157;27;20066;-69
2023/05/01 05:53:29;;;;;;;6.38;2.67;;;;;;;;;;5109720;27;20628;-70
2023/05/01 05:55:56;;;;;;;6.28;2.80;;;;;;;;;;5106835;27;20055;-70
2023/05/01 05:58:24;;;;;;;6.75;2.63;;;;;;;;;;5108757;27;20040;-70
2023/05/01 06:00:54;;;;;;;6.13;2.70;;;;;;;;;;5113573;27;20155;-69
2023/05/01 06:03:21;;;;;;;8.30;2.63;;;;;;;;;;5112004;27;20055;-70
2023/05/01 06:05:49;;;;;;;7.05;2.60;;;;;;;;;;5115168;27;20051;-70
2023/05/01 06:08:16;;;;;;;4.97;2.55;;;;;;;;;;5114733;27;20044;-70
2023/05/01 06:10:45;;;;;;;5.45;2.67;;;;;;;;;;5115552;27;20092;-70
2023/05/01 06:13:12;;;;;;;7.45;2.45;;;;;;;;;;5110234;27;20044;-70
2023/05/01 06:15:40;;;;;;;7.25;2.60;;;;;;;;;;5116982;27;20461;-70
2023/05/01 06:18:07;;;;;;;4.10;2.30;;;;;;;;;;5109101;27;20410;-69
2023/05/01 06:20:34;;;;;;;5.70;2.75;;;;;;;;;;5128479;27;20182;-70
2023/05/01 06:23:02;;;;;;;5.97;3.10;;;;;;;;;;5126282;27;20035;-71
2023/05/01 06:25:29;;;;;;;4.63;2.63;;;;;;;;;;5129141;27;20069;-72
2023/05/01 06:27:58;;;;;;;5.70;2.55;;;;;;;;;;5128064;27;20088;-71
2023/05/01 06:30:25;;;;;;;5.20;2.70;;;;;;;;;;5129536;27;20050;-71
2023/05/01 06:32:52;;;;;;;6.00;2.63;;;;;;;;;;5126624;27;20051;-71
2023/05/01 06:35:20;;;;;;;4.03;2.38;;;;;;;;;;5130066;27;20043;-71
2023/05/01 06:37:47;;;;;;;7.85;2.78;;;;;;;;;;5129100;27;20074;-71
2023/05/01 06:40:15;;;;;;;5.35;2.67;;;;;;;;;;5128378;27;20051;-71
2023/05/01 06:42:42;;;;;;;5.28;2.85;;;;;;;;;;5128243;27;20058;-71
2023/05/01 06:45:11;;;;;;;5.00;2.50;;;;;;;;;;5130569;27;20043;-72
2023/05/01 06:47:38;;;;;;;4.07;2.33;;;;;;;;;;5126705;27;20036;-71
2023/05/01 06:50:06;;;;;;;6.30;2.50;;;;;;;;;;5109990;27;20050;-71
2023/05/01 06:52:33;;;;;;;5.03;2.50;;;;;;;;;;5126823;27;20047;-71
2023/05/01 06:55:00;;;;;;;4.57;2.63;;;;;;;;;;5128768;27;20602;-71
2023/05/01 06:57:28;;;;;;;5.72;2.72;;;;;;;;;;5115216;27;20061;-71
2023/05/01 06:59:55;;;;;;;4.07;2.33;;;;;;;;;;5127828;27;20386;-72
2023/05/01 07:02:24;;;;;;;6.53;2.80;;;;;;;;;;5126797;27;20039;-72
2023/05/01 07:04:51;;;;;;;6.85;2.67;;;;;;;;;;5127821;27;20047;-71
2023/05/01 07:07:19;;;;;;;3.05;2.30;;;;;;;;;;5127301;27;21318;-71
2023/05/01 07:09:46;;;;;;;4.57;2.40;;;;;;;;;;5129052;27;20047;-72
2023/05/01 07:12:13;;;;;;;5.20;2.47;;;;;;;;;;5128130;27;20042;-71
2023/05/01 07:14:41;;;;;;;5.53;2.47;;;;;;;;;;5128510;27;20051;-71
2023/05/01 07:17:09;;;;;;;6.70;2.97;;;;;;;;;;5127840;27;20058;-71
2023/05/01 07:19:37;;;;;;;8.10;2.60;;;;;;;;;;5128345;27;20485;-71
2023/05/01 07:22:04;;;;;;;4.68;2.25;;;;;;;;;;5127728;27;20140;-71
2023/05/01 07:24:32;;;;;;;4.72;2.30;;;;;;;;;;5109493;27;20062;-72
2023/05/01 07:26:59;;;;;;;4.65;2.53;;;;;;;;;;5128356;27;20050;-71
2023/05/01 07:29:27;;;;;;;4.57;2.10;;;;;;;;;;5108595;27;20055;-72
2023/05/01 07:31:54;;;;;;;5.55;2.45;;;;;;;;;;5127540;27;20047;-71
2023/05/01 07:34:21;;;;;;;4.35;2.45;;;;;;;;;;5128540;27;20058;-71
2023/05/01 07:36:50;;;;;;;3.42;2.25;;;;;;;;;;5127455;27;20039;-71
2023/05/01 07:39:17;;;;;;;6.55;2.28;;;;;;;;;;5127617;27;20039;-71
2023/05/01 07:41:44;;;;;;;4.88;2.40;;;;;;;;;;5128601;27;20514;-71
2023/05/01 07:44:12;;;;;;;4.63;2.25;;;;;;;;;;5127512;27;20047;-72
2023/05/01 07:46:39;;;;;;;3.53;1.90;;;;;;;;;;5128507;27;20047;-71
2023/05/01 07:49:06;;;;;;;7.07;2.20;;;;;;;;;;5126231;27;20047;-71
2023/05/01 07:51:34;;;;;;;4.05;1.83;;;;;;;;;;5125737;27;20054;-71
2023/05/01 07:54:03;;;;;;;5.03;2.10;;;;;;;;;;5123451;27;20055;-71
2023/05/01 07:56:30;;;;;;;3.50;1.80;;;;;;;;;;5128477;27;20061;-71
2023/05/01 07:58:58;;;;;;;4.28;2.08;;;;;;;;;;5126832;27;20039;-71
2023/05/01 08:01:25;;;;;;;3.70;2.00;;;;;;;;;;5103871;27;20039;-72
2023/05/01 08:03:52;;;;;;;4.95;2.15;;;;;;;;;;5103951;27;20051;-71
2023/05/01 08:06:20;;;;;;;3.65;1.92;;;;;;;;;;5127615;27;20055;-71
2023/05/01 08:08:47;;;;;;;2.85;1.80;;;;;;;;;;5109205;28;20138;-72
2023/05/01 08:11:16;;;;;;;4.28;1.95;;;;;;;;;;5126771;27;20055;-71
2023/05/01 08:13:43;;;;;;;3.80;1.73;;;;;;;;;;5108673;28;20062;-71
2023/05/01 08:16:10;;;;;;;3.35;1.80;;;;;;;;;;5126424;27;20047;-71
2023/05/01 08:18:37;;;;;;;5.38;1.38;;;;;;;;;;5127489;27;20054;-71
2023/05/01 08:21:05;;;;;;;4.05;1.58;;;;;;;;;;5108750;27;20055;-71
2023/05/01 08:23:32;;;;;;;3.95;1.35;;;;;;;;;;5127466;27;20051;-71
2023/05/01 08:25:59;;;;;;;6.70;1.63;;;;;;;;;;5124796;27;20070;-72
2023/05/01 08:28:28;;;;;;;3.33;1.50;;;;;;;;;;5130984;27;20039;-71
2023/05/01 08:30:55;;;;;;;3.38;1.67;;;;;;;;;;5128218;27;20039;-72
2023/05/01 08:33:23;;;;;;;3.25;1.33;;;;;;;;;;5132471;27;20526;-72
2023/05/01 08:35:50;;;;;;;3.47;1.27;;;;;;;;;;5111312;27;20055;-72
2023/05/01 08:38:17;;;;;;;2.92;1.20;;;;;;;;;;5127016;27;20039;-72
2023/05/01 08:40:48;;;;;;;5.03;1.70;;;;;;;;;;5128024;27;20052;-71
2023/05/01 08:43:15;;;;;;;4.22;1.60;;;;;;;;;;5131813;27;20050;-72
2023/05/01 08:45:45;;;;;;;3.60;1.55;;;;;;;;;;5131123;27;20055;-72
2023/05/01 08:48:12;;;;;;;3.03;1.50;;;;;;;;;;5126657;27;20059;-72
2023/05/01 08:50:40;;;;;;;4.15;1.80;;;;;;;;;;5126490;27;20051;-72
2023/05/01 08:53:09;;;;;;;3.45;1.63;;;;;;;;;;5107863;27;20055;-72
2023/05/01 08:55:37;;;;;;;5.75;1.70;;;;;;;;;;5127550;27;20141;-73
2023/05/01 08:58:04;;;;;;;4.93;2.10;;;;;;;;;;5132372;27;20173;-72
2023/05/01 09:00:33;;;;;;;3.55;1.60;;;;;;;;;;5127445;27;20413;-72
2023/05/01 09:03:02;;;;;;;3.92;1.63;;;;;;;;;;5130821;27;20546;-72
2023/05/01 09:05:32;;;;;;;7.20;1.90;;;;;;;;;;5129326;27;20498;-72
2023/05/01 09:07:59;;;;;;;2.75;1.52;;;;;;;;;;5131844;27;20043;-72
2023/05/01 09:10:27;;;;;;;4.97;1.67;;;;;;;;;;5130530;27;20042;-72
2023/05/01 09:12:56;;;;;;;3.67;1.40;;;;;;;;;;5131168;27;20051;-72
2023/05/01 09:15:24;;;;;;;3.00;1.20;;;;;;;;;;5127510;27;20526;-72
2023/05/01 09:17:51;;;;;;;2.10;1.15;;;;;;;;;;5129290;27;20039;-71
2023/05/01 09:20:20;;;;;;;3.30;1.30;;;;;;;;;;5107282;27;20414;-72
2023/05/01 09:22:48;;;;;;;2.65;1.30;;;;;;;;;;5106315;27;20070;-72
2023/05/01 09:25:15;;;;;;;2.72;1.35;;;;;;;;;;5111295;28;20052;-72
2023/05/01 09:27:42;;;;;;;1.10;1.00;;;;;;;;;;5108510;27;20052;-72
2023/05/01 09:30:10;;;;;;;1.88;1.20;;;;;;;;;;5107735;28;20047;-72
2023/05/01 09:32:37;;;;;;;2.50;1.20;;;;;;;;;;5091502;28;20498;-72
2023/05/01 09:35:12;;;;;;;2.90;1.05;;;;;;;;;;5106400;28;20056;-72
2023/05/01 09:37:41;;;;;;;4.22;1.20;;;;;;;;;;5108215;28;20507;-72
2023/05/01 09:40:09;;;;;;;4.07;1.17;;;;;;;;;;5106517;28;20363;-73
2023/05/01 09:42:37;;;;;;;3.95;1.10;;;;;;;;;;5108334;28;20043;-72
2023/05/01 09:45:05;;;;;;;2.35;1.05;;;;;;;;;;5108403;28;20092;-73
2023/05/01 09:47:33;;;;;;;1.33;0.88;;;;;;;;;;5108519;28;20475;-72
2023/05/01 09:50:00;;;;;;;1.92;1.05;;;;;;;;;;5109156;28;20039;-72
2023/05/01 09:52:28;;;;;;;2.42;1.30;;;;;;;;;;5104631;28;20043;-72
2023/05/01 09:55:13;;;;;;;3.10;1.40;;;;;;;;;;5103778;28;20059;-72
2023/05/01 09:57:42;;;;;;;2.03;1.10;;;;;;;;;;5110137;27;20568;-72
2023/05/01 10:00:11;;;;;;;3.58;1.40;;;;;;;;;;5089906;28;20052;-72
2023/05/01 10:02:38;;;;;;;1.90;1.20;;;;;;;;;;5107092;28;20112;-72
2023/05/01 10:05:07;;;;;;;3.25;1.63;;;;;;;;;;5108242;28;20043;-72
2023/05/01 10:07:34;;;;;;;4.05;1.60;;;;;;;;;;5109136;28;20043;-72
2023/05/01 10:10:16;;;;;;;2.50;1.40;;;;;;;;;;5103546;28;20051;-72
2023/05/01 10:12:45;;;;;;;2.50;1.48;;;;;;;;;;5108851;28;20506;-72
2023/05/01 10:15:12;;;;;;;1.52;1.10;;;;;;;;;;5106634;28;20047;-72
2023/05/01 10:17:40;;;;;;;2.80;1.40;;;;;;;;;;5108941;28;20074;-72
2023/05/01 10:20:08;;;;;;;2.72;1.20;;;;;;;;;;5115549;27;20044;-72
2023/05/01 10:22:35;;;;;;;1.45;0.90;;;;;;;;;;5096951;27;20050;-72
2023/05/01 10:25:04;;;;;;;1.77;1.00;;;;;;;;;;5113615;27;20564;-72
2023/05/01 10:27:31;;;;;;;3.05;1.10;;;;;;;;;;5106696;27;20047;-72
2023/05/01 10:30:01;;;;;;;2.85;1.20;;;;;;;;;;5111012;27;20050;-72
2023/05/01 10:32:28;;;;;;;2.10;1.20;;;;;;;;;;5114700;27;20055;-72
2023/05/01 10:34:58;;;;;;;2.60;1.27;;;;;;;;;;5115022;27;20055;-72
2023/05/01 10:37:28;;;;;;;2.88;1.20;;;;;;;;;;5110907;27;20043;-72
2023/05/01 10:39:55;;;;;;;4.35;1.80;;;;;;;;;;5113907;27;20096;-72
2023/05/01 10:42:22;;;;;;;3.75;1.30;;;;;;;;;;5114658;27;20458;-72
2023/05/01 10:44:49;;;;;;;4.25;1.85;;;;;;;;;;5113284;27;20052;-72
2023/05/01 10:47:40;;;;;;;1.90;1.20;;;;;;;;;;5111328;27;20059;-72
2023/05/01 10:50:09;;;;;;;2.15;1.50;;;;;;;;;;5099187;27;20047;-72
2023/05/01 10:52:51;;;;;;;2.47;1.00;;;;;;;;;;5105587;27;20168;-73
2023/05/01 10:55:35;;;;;;;1.92;1.08;;;;;;;;;;5107245;27;20051;-72
2023/05/01 10:58:02;;;;;;;3.03;1.10;;;;;;;;;;5107760;27;20035;-72
2023/05/01 11:00:29;;;;;;;1.77;1.02;;;;;;;;;;5111014;27;20059;-72
2023/05/01 11:03:11;;;;;;;5.30;1.20;;;;;;;;;;5106014;27;20048;-72
2023/05/01 11:05:57;;;;;;;2.45;1.13;;;;;;;;;;5114364;27;20058;-72
2023/05/01 11:08:32;;;;;;;1.77;1.00;;;;;;;;;;5111887;27;20048;-72
2023/05/01 11:11:23;;;;;;;3.45;1.00;;;;;;;;;;5114834;27;20043;-72
2023/05/01 11:13:57;;;;;;;3.38;1.10;;;;;;;;;;5113031;27;20051;-73
2023/05/01 11:16:45;;;;;;;1.75;1.15;;;;;;;;;;5107373;27;20061;-72
2023/05/01 11:19:13;;;;;;;3.45;1.40;;;;;;;;;;5111798;27;20074;-72
2023/05/01 11:21:40;;;;;;;2.03;1.25;;;;;;;;;;5111610;27;20480;-72
2023/05/01 11:24:10;;;;;;;2.95;1.15;;;;;;;;;;5109709;27;20048;-72
2023/05/01 11:26:39;;;;;;;3.47;1.58;;;;;;;;;;5113080;28;20048;-72
2023/05/01 11:29:07;;;;;;;2.63;1.20;;;;;;;;;;5111949;27;20050;-72
2023/05/01 11:31:34;;;;;;;4.18;1.52;;;;;;;;;;5116525;27;20054;-73
2023/05/01 11:34:01;;;;;;;1.90;1.20;;;;;;;;;;5109534;28;20052;-73
2023/05/01 11:36:30;;;;;;;2.67;1.60;;;;;;;;;;5117653;28;20039;-73
2023/05/01 11:38:59;;;;;;;3.40;1.75;;;;;;;;;;5108977;28;20054;-72
2023/05/01 11:41:28;;;;;;;2.63;1.70;;;;;;;;;;5121697;28;20035;-72
2023/05/01 11:43:56;;;;;;;3.05;1.70;;;;;;;;;;5110068;28;20039;-72
2023/05/01 11:46:27;;;;;;;4.40;2.20;;;;;;;;;;5108910;28;20055;-73
2023/05/01 11:48:55;;;;;;;5.25;2.08;;;;;;;;;;5110181;28;20372;-73
2023/05/01 11:51:23;;;;;;;4.07;2.28;;;;;;;;;;5110611;28;20067;-72
2023/05/01 11:54:00;;;;;;;3.22;2.30;;;;;;;;;;5114139;28;20144;-72
2023/05/01 11:56:29;;;;;;;7.18;2.70;;;;;;;;;;5120399;28;20039;-72
2023/05/01 11:58:57;;;;;;;3.47;2.53;;;;;;;;;;5115833;28;20044;-72
2023/05/01 12:01:34;;;;;;;4.45;2.75;;;;;;;;;;5110911;28;20067;-72
2023/05/01 12:04:01;;;;;;;3.95;3.08;;;;;;;;;;5115532;27;20043;-72
2023/05/01 12:06:39;;;;;;;4.53;2.70;;;;;;;;;;5115991;27;20047;-73
2023/05/01 12:09:07;;;;;;;4.38;2.90;;;;;;;;;;5102096;27;20043;-72
2023/05/01 12:11:36;;;;;;;5.93;3.03;;;;;;;;;;5111933;27;20055;-72
2023/05/01 12:14:04;;;;;;;5.82;3.10;;;;;;;;;;5117403;27;20128;-72
2023/05/01 12:16:32;;;;;;;4.28;2.55;;;;;;;;;;5113373;27;20094;-72
2023/05/01 12:18:59;;;;;;;4.63;3.10;;;;;;;;;;5111185;27;20051;-72
2023/05/01 12:21:27;;;;;;;5.90;2.95;;;;;;;;;;5102558;27;20619;-72
2023/05/01 12:23:54;;;;;;;4.47;2.90;;;;;;;;;;5110357;27;20772;-72
2023/05/01 12:26:24;;;;;;;3.72;2.47;;;;;;;;;;5113084;27;20062;-72
2023/05/01 12:28:56;;;;;;;5.22;3.08;;;;;;;;;;5103898;27;20690;-72
2023/05/01 12:31:23;;;;;;;5.13;2.95;;;;;;;;;;5115081;27;20554;-72
2023/05/01 12:33:55;;;;;;;4.97;3.17;;;;;;;;;;5118066;27;20074;-72
2023/05/01 12:36:27;;;;;;;5.10;3.00;;;;;;;;;;5117508;27;20051;-72
2023/05/01 12:38:59;;;;;;;4.43;3.15;;;;;;;;;;5114602;27;20118;-72
2023/05/01 12:41:39;;;;;;;5.63;3.20;;;;;;;;;;5115563;27;20130;-72
2023/05/01 12:44:22;;;;;;;4.60;3.03;;;;;;;;;;5115520;27;20494;-72
2023/05/01 12:46:56;;;;;;;6.72;3.45;;;;;;;;;;5115715;27;20051;-72
2023/05/01 12:49:24;;;;;;;6.70;3.65;;;;;;;;;;5106702;27;20056;-72
2023/05/01 12:51:51;;;;;;;4.57;3.10;;;;;;;;;;5109663;27;20048;-72
2023/05/01 12:54:20;;;;;;;4.57;3.03;;;;;;;;;;5114985;27;20039;-72
2023/05/01 12:56:47;;;;;;;5.93;3.50;;;;;;;;;;5109369;27;20055;-72
2023/05/01 12:59:23;;;;;;;6.10;3.25;;;;;;;;;;5116640;27;20055;-72
2023/05/01 13:01:57;;;;;;;5.63;3.30;;;;;;;;;;5118410;27;20040;-72
2023/05/01 13:04:25;;;;;;;6.40;3.45;;;;;;;;;;5109282;27;20060;-72
2023/05/01 13:06:54;;;;;;;4.75;2.90;;;;;;;;;;5111267;27;20052;-72
2023/05/01 13:09:22;;;;;;;4.28;2.95;;;;;;;;;;5115817;27;20078;-72
2023/05/01 13:12:01;;;;;;;5.28;3.17;;;;;;;;;;5111250;27;20066;-71
2023/05/01 13:14:30;;;;;;;3.95;3.08;;;;;;;;;;5117300;27;20043;-72
2023/05/01 13:16:57;;;;;;;7.57;3.08;;;;;;;;;;5117244;27;20104;-72
2023/05/01 13:19:27;;;;;;;5.68;3.22;;;;;;;;;;5122219;27;20360;-72
2023/05/01 13:21:55;;;;;;;5.20;3.15;;;;;;;;;;5129613;27;20047;-71
2023/05/01 13:24:22;;;;;;;4.53;3.00;;;;;;;;;;5130944;27;20051;-72
2023/05/01 13:26:58;;;;;;;5.78;3.67;;;;;;;;;;5131042;27;20046;-72
2023/05/01 13:29:25;;;;;;;5.93;3.10;;;;;;;;;;5130585;27;20138;-71
2023/05/01 13:31:54;;;;;;;5.10;3.10;;;;;;;;;;5128870;27;20051;-71
2023/05/01 13:34:26;;;;;;;8.02;4.05;;;;;;;;;;5130309;27;20125;-72
2023/05/01 13:36:54;;;;;;;5.88;3.58;;;;;;;;;;5127489;27;20047;-71
2023/05/01 13:39:22;;;;;;;4.88;3.22;;;;;;;;;;5129329;27;20151;-72
2023/05/01 13:41:50;;;;;;;5.38;3.72;;;;;;;;;;5127698;27;20047;-72
2023/05/01 13:44:17;;;;;;;5.80;3.50;;;;;;;;;;5126375;27;20501;-71
2023/05/01 13:46:45;;;;;;;7.18;3.88;;;;;;;;;;5130865;27;20066;-71
2023/05/01 13:49:14;;;;;;;6.13;3.90;;;;;;;;;;5126169;27;20110;-73
2023/05/01 13:51:42;;;;;;;6.18;3.72;;;;;;;;;;5127940;27;20401;-71
2023/05/01 13:54:10;;;;;;;5.88;3.70;;;;;;;;;;5130128;27;20542;-72
2023/05/01 13:56:38;;;;;;;5.68;3.80;;;;;;;;;;5129460;27;20035;-72
2023/05/01 13:59:06;;;;;;;7.60;3.90;;;;;;;;;;5127521;27;20055;-71
2023/05/01 14:01:36;;;;;;;5.57;3.25;;;;;;;;;;5129918;27;20419;-72
2023/05/01 14:04:04;;;;;;;8.15;4.35;;;;;;;;;;5127747;27;20093;-72
2023/05/01 14:06:32;;;;;;;7.95;4.78;;;;;;;;;;5128881;27;20051;-71
2023/05/01 14:09:00;;;;;;;6.47;4.15;;;;;;;;;;5128285;27;20054;-72
2023/05/01 14:11:27;;;;;;;6.05;4.07;;;;;;;;;;5129836;27;20050;-72
2023/05/01 14:13:58;;;;;;;7.43;4.25;;;;;;;;;;5129253;27;20070;-72
2023/05/01 14:16:25;;;;;;;8.60;4.63;;;;;;;;;;5126306;27;20047;-72
2023/05/01 14:18:55;;;;;;;8.88;4.68;;;;;;;;;;5126632;27;20059;-71
2023/05/01 14:21:23;;;;;;;7.93;4.60;;;;;;;;;;5113355;27;20039;-72
2023/05/01 14:23:52;;;;;;;6.70;4.60;;;;;;;;;;5117496;27;20043;-72
2023/05/01 14:26:20;;;;;;;6.32;4.43;;;;;;;;;;5117525;27;20059;-72
2023/05/01 14:28:48;;;;;;;7.85;4.50;;;;;;;;;;5114137;27;20507;-72
2023/05/01 14:31:17;;;;;;;7.50;5.03;;;;;;;;;;5114663;27;20054;-71
2023/05/01 14:33:45;;;;;;;7.65;4.88;;;;;;;;;;5110475;27;20058;-72
2023/05/01 14:36:13;;;;;;;8.68;4.72;;;;;;;;;;5115131;27;20062;-72
2023/05/01 14:38:45;;;;;;;9.13;5.22;;;;;;;;;;5111989;27;20047;-72
2023/05/01 14:41:15;;;;;;;7.75;4.40;;;;;;;;;;5116767;27;20043;-72
2023/05/01 14:43:43;;;;;;;5.93;4.28;;;;;;;;;;5114432;27;20043;-72
2023/05/01 14:46:12;;;;;;;6.70;4.47;;;;;;;;;;5116306;27;20126;-72
2023/05/01 14:48:41;;;;;;;6.07;4.25;;;;;;;;;;5102801;27;20139;-72
2023/05/01 14:51:10;;;;;;;7.97;4.15;;;;;;;;;;5104576;27;20122;-72
2023/05/01 14:53:41;;;;;;;6.65;3.88;;;;;;;;;;5110140;27;20043;-72